createdAt,value
2023-02-09T00:00:28.403Z,43.60
2023-02-09T00:03:32.063Z,36.95
2023-02-09T00:06:35.238Z,40.33
2023-02-09T00:09:40.085Z,34.95
2023-02-09T00:12:59.885Z,36.63
2023-02-09T00:21:21.739Z,36.92
2023-02-09T00:25:32.681Z,39.22
2023-02-09T00:28:56.489Z,38.75
2023-02-09T00:31:59.774Z,39.33
2023-02-09T00:35:08.889Z,44.40
2023-02-09T00:38:13.915Z,38.97
2023-02-09T00:41:17.716Z,39.55
2023-02-09T00:44:29.430Z,39.15
2023-02-09T00:47:32.605Z,40.35
2023-02-09T00:50:36.147Z,38.53
2023-02-09T00:53:39.286Z,43.42
2023-02-09T00:56:45.615Z,44.47
2023-02-09T00:59:53.092Z,40.25
2023-02-09T01:02:59.945Z,40.72
2023-02-09T01:06:03.340Z,37.22
2023-02-09T01:13:29.725Z,36.97
2023-02-09T01:16:35.060Z,40.45
2023-02-09T01:19:38.506Z,33.28
2023-02-09T01:22:44.362Z,36.58
2023-02-09T01:31:47.327Z,35.30
2023-02-09T01:35:32.302Z,27.98
2023-02-09T01:39:51.385Z,36.45
2023-02-09T01:43:14.673Z,32.47
2023-02-09T01:46:17.875Z,31.50
2023-02-09T01:49:38.144Z,32.08
2023-02-09T01:52:43.398Z,32.08
2023-02-09T01:55:52.308Z,35.75
2023-02-09T01:58:55.685Z,29.20
2023-02-09T02:01:58.992Z,32.25
2023-02-09T02:05:06.488Z,30.52
2023-02-09T02:08:17.110Z,32.33
2023-02-09T02:11:22.204Z,33.53
2023-02-09T02:15:09.108Z,36.38
2023-02-09T02:18:24.957Z,34.67
2023-02-09T02:22:17.026Z,32.83
2023-02-09T02:26:03.347Z,33.72
2023-02-09T02:29:29.841Z,33.10
2023-02-09T02:33:10.842Z,35.03
2023-02-09T02:36:23.007Z,33.72
2023-02-09T02:39:39.695Z,32.47
2023-02-09T02:42:50.176Z,28.67
2023-02-09T02:46:03.418Z,31.60
2023-02-09T02:49:15.138Z,30.88
2023-02-09T02:52:36.486Z,28.70
2023-02-09T02:56:18.970Z,27.77
2023-02-09T02:59:33.948Z,32.10
2023-02-09T03:02:42.177Z,27.23
2023-02-09T03:05:54.528Z,26.83
2023-02-09T03:14:43.250Z,28.17
2023-02-09T03:17:52.481Z,30.50
2023-02-09T03:31:09.449Z,36.70
2023-02-09T03:38:35.457Z,34.03
2023-02-09T03:41:38.961Z,37.08
2023-02-09T03:44:42.364Z,43.88
2023-02-09T03:48:01.801Z,46.95
2023-02-09T03:51:06.697Z,39.30
2023-02-09T03:54:10.386Z,42.28
2023-02-09T04:02:39.149Z,46.00
2023-02-09T04:11:27.275Z,44.33
2023-02-09T04:14:35.433Z,40.85
2023-02-09T04:17:38.584Z,40.58
2023-02-09T04:20:41.708Z,45.08
2023-02-09T04:23:45.065Z,35.63
2023-02-09T04:26:49.711Z,38.47
2023-02-09T04:29:52.881Z,32.65
2023-02-09T04:34:25.176Z,33.90
2023-02-09T04:37:28.408Z,41.47
2023-02-09T04:40:31.905Z,45.85
2023-02-09T04:43:50.602Z,43.45
2023-02-09T04:46:53.854Z,41.42
2023-02-09T04:49:58.737Z,44.92
2023-02-09T04:53:01.935Z,36.55
2023-02-09T04:56:06.734Z,40.53
2023-02-09T04:59:27.816Z,46.83
2023-02-09T05:02:31.039Z,62.28
2023-02-09T05:05:39.577Z,58.60
2023-02-09T05:08:42.852Z,66.93
2023-02-09T05:11:55.331Z,55.55
2023-02-09T05:14:58.426Z,58.50
2023-02-09T05:18:01.578Z,55.17
2023-02-09T05:21:06.466Z,48.15
2023-02-09T05:24:10.681Z,46.30
2023-02-09T05:27:16.517Z,46.40
2023-02-09T05:39:09.182Z,40.80
2023-02-09T05:42:28.160Z,47.90
2023-02-09T05:45:31.332Z,46.58
2023-02-09T05:48:34.505Z,43.58
2023-02-09T05:51:37.798Z,41.45
2023-02-09T05:54:42.260Z,43.30
2023-02-09T05:57:45.440Z,41.13
2023-02-09T06:01:38.336Z,46.40
2023-02-09T06:05:08.852Z,47.25
2023-02-09T06:11:55.504Z,48.97
2023-02-09T06:14:58.918Z,43.50
2023-02-09T06:18:02.110Z,37.97
2023-02-09T06:21:15.951Z,48.78
2023-02-09T06:24:19.426Z,45.78
2023-02-09T06:28:03.237Z,49.15
2023-02-09T06:37:05.633Z,71.25
2023-02-09T06:40:09.389Z,77.05
2023-02-09T06:43:12.513Z,46.40
2023-02-09T06:46:16.550Z,39.20
2023-02-09T06:49:26.519Z,29.63
2023-02-09T06:52:35.269Z,36.40
2023-02-09T06:55:44.574Z,39.92
2023-02-09T07:03:39.738Z,50.17
2023-02-09T07:06:43.054Z,48.45
2023-02-09T07:09:47.527Z,40.42
2023-02-09T07:12:50.759Z,44.55
2023-02-09T07:15:57.948Z,50.13
2023-02-09T07:19:01.177Z,37.55
2023-02-09T07:22:04.425Z,39.58
2023-02-09T07:25:09.546Z,41.20
2023-02-09T07:28:15.256Z,40.72
2023-02-09T07:31:18.845Z,47.42
2023-02-09T07:34:22.479Z,34.95
2023-02-09T07:37:25.653Z,38.53
2023-02-09T07:40:32.479Z,40.45
2023-02-09T07:43:36.146Z,40.67
2023-02-09T07:46:39.506Z,41.50
2023-02-09T07:49:42.834Z,41.33
2023-02-09T07:52:47.721Z,42.95
2023-02-09T07:55:52.316Z,31.67
2023-02-09T07:58:56.598Z,30.48
2023-02-09T08:02:41.286Z,30.73
2023-02-09T08:10:46.160Z,30.23
2023-02-09T08:13:54.050Z,26.77
2023-02-09T08:17:24.114Z,28.88
2023-02-09T08:20:30.879Z,27.88
2023-02-09T08:23:37.564Z,29.98
2023-02-09T08:26:50.856Z,24.50
2023-02-09T08:29:55.832Z,27.13
2023-02-09T08:33:20.592Z,21.33
2023-02-09T08:36:23.869Z,22.77
2023-02-09T08:39:34.730Z,18.48
2023-02-09T08:42:40.141Z,23.45
2023-02-09T08:45:45.210Z,20.75
2023-02-09T08:48:48.689Z,25.23
2023-02-09T08:51:52.345Z,23.42
2023-02-09T08:54:56.064Z,21.73
2023-02-09T08:58:12.972Z,17.92
2023-02-09T09:01:17.570Z,25.85
2023-02-09T09:04:21.810Z,17.23
2023-02-09T09:07:25.094Z,17.45
2023-02-09T09:10:28.494Z,17.70
2023-02-09T09:17:59.642Z,12.93
2023-02-09T09:21:03.026Z,16.00
2023-02-09T09:24:06.451Z,13.43
2023-02-09T09:27:11.554Z,14.32
2023-02-09T09:30:15.406Z,12.02
2023-02-09T09:33:19.971Z,14.65
2023-02-09T09:36:23.205Z,13.73
2023-02-09T09:39:26.741Z,13.57
2023-02-09T09:42:45.289Z,16.58
2023-02-09T09:45:49.110Z,15.85
2023-02-09T09:48:56.734Z,13.05
2023-02-09T09:52:08.342Z,16.90
2023-02-09T09:55:23.195Z,15.20
2023-02-09T09:58:26.706Z,13.13
2023-02-09T10:01:34.347Z,13.90
2023-02-09T10:04:39.259Z,15.55
2023-02-09T10:13:15.867Z,17.50
2023-02-09T10:16:24.825Z,15.55
2023-02-09T10:19:29.371Z,15.75
2023-02-09T10:22:34.230Z,14.45
2023-02-09T10:25:55.327Z,16.38
2023-02-09T10:29:00.628Z,17.00
2023-02-09T10:34:34.898Z,15.02
2023-02-09T10:37:40.621Z,17.25
2023-02-09T10:40:44.492Z,17.30
2023-02-09T10:43:53.424Z,19.02
2023-02-09T10:47:11.660Z,16.92
2023-02-09T10:50:19.237Z,18.88
2023-02-09T10:53:25.875Z,16.73
2023-02-09T10:57:17.354Z,19.87
2023-02-09T11:00:40.232Z,22.00
2023-02-09T11:03:59.065Z,22.10
2023-02-09T11:07:16.211Z,19.58
2023-02-09T11:10:20.395Z,20.45
2023-02-09T11:13:26.144Z,18.80
2023-02-09T11:16:48.368Z,19.23
2023-02-09T11:20:02.932Z,20.55
2023-02-09T11:23:34.114Z,21.02
2023-02-09T11:26:50.641Z,21.90
2023-02-09T11:30:05.408Z,18.98
2023-02-09T11:33:18.119Z,19.10
2023-02-09T11:36:40.676Z,21.30
2023-02-09T11:39:55.482Z,23.17
2023-02-09T11:43:16.494Z,22.77
2023-02-09T11:46:35.202Z,20.13
2023-02-09T11:49:45.342Z,21.13
2023-02-09T11:52:55.964Z,21.27
2023-02-09T11:56:03.128Z,22.38
2023-02-09T11:59:27.516Z,24.42
2023-02-09T12:02:47.397Z,22.60
2023-02-09T12:05:51.716Z,20.25
2023-02-09T12:09:04.098Z,19.60
2023-02-09T12:12:25.342Z,24.42
2023-02-09T12:20:56.390Z,22.50
2023-02-09T12:24:00.214Z,22.75
2023-02-09T12:27:26.842Z,23.40
2023-02-09T12:31:02.945Z,26.25
2023-02-09T12:34:38.929Z,24.60
2023-02-09T12:38:18.256Z,24.60
2023-02-09T12:41:24.209Z,32.20
2023-02-09T12:44:39.814Z,22.38
2023-02-09T12:47:45.486Z,21.58
2023-02-09T12:50:52.261Z,24.65
2023-02-09T12:53:55.975Z,24.98
2023-02-09T12:57:52.427Z,23.35
2023-02-09T13:14:59.226Z,24.83
2023-02-09T13:18:19.897Z,23.45
2023-02-09T13:21:36.769Z,28.67
2023-02-09T13:24:45.848Z,23.85
2023-02-09T13:33:59.982Z,23.48
2023-02-09T13:37:18.810Z,29.33
2023-02-09T13:50:16.622Z,30.55
2023-02-09T13:53:24.696Z,27.88
2023-02-09T13:56:29.673Z,23.45
2023-02-09T14:04:56.391Z,31.35
2023-02-09T14:13:29.922Z,25.35
2023-02-09T14:16:41.685Z,23.52
2023-02-09T14:19:57.884Z,30.67
2023-02-09T14:28:20.481Z,24.65
2023-02-09T14:31:29.144Z,26.73
2023-02-09T14:34:36.487Z,23.58
2023-02-09T14:42:17.924Z,27.10
2023-02-09T14:45:31.791Z,33.08
2023-02-09T14:48:36.303Z,31.95
2023-02-09T14:51:39.513Z,30.88
2023-02-09T14:54:47.968Z,29.88
2023-02-09T14:57:51.123Z,31.20
2023-02-09T15:00:56.323Z,32.08
2023-02-09T15:04:00.832Z,34.80
2023-02-09T15:07:04.680Z,35.38
2023-02-09T15:10:12.686Z,32.78
2023-02-09T15:16:19.487Z,38.53
2023-02-09T15:19:24.137Z,35.47
2023-02-09T15:22:27.515Z,32.10
2023-02-09T15:25:30.745Z,30.95
2023-02-09T15:28:34.283Z,30.73
2023-02-09T15:31:37.491Z,36.25
2023-02-09T15:34:42.235Z,31.70
2023-02-09T15:37:48.936Z,32.85
2023-02-09T15:41:12.308Z,33.53
2023-02-09T15:44:36.137Z,29.23
2023-02-09T15:47:53.540Z,31.73
2023-02-09T15:51:00.802Z,31.58
2023-02-09T15:54:13.354Z,35.58
2023-02-09T15:57:18.680Z,33.90
2023-02-09T16:00:24.816Z,33.63
2023-02-09T16:03:28.600Z,33.60
2023-02-09T16:06:35.567Z,31.95
2023-02-09T16:09:40.775Z,32.60
2023-02-09T16:12:44.075Z,36.30
2023-02-09T16:15:47.906Z,33.40
2023-02-09T16:18:51.065Z,38.13
2023-02-09T16:21:59.286Z,31.70
2023-02-09T16:25:02.614Z,34.03
2023-02-09T16:28:05.963Z,34.13
2023-02-09T16:34:26.710Z,34.83
2023-02-09T16:37:32.522Z,33.78
2023-02-09T16:40:35.717Z,30.02
2023-02-09T16:43:40.902Z,39.65
2023-02-09T16:46:46.929Z,46.25
2023-02-09T16:49:58.791Z,46.33
2023-02-09T16:53:04.662Z,39.72
2023-02-09T16:56:10.160Z,39.78
2023-02-09T16:59:14.288Z,47.72
2023-02-09T17:02:30.471Z,47.80
2023-02-09T17:05:37.878Z,45.08
2023-02-09T17:08:41.004Z,42.17
2023-02-09T17:11:44.153Z,42.67
2023-02-09T17:14:47.236Z,49.00
2023-02-09T17:17:54.124Z,54.78
2023-02-09T17:21:02.065Z,54.65
2023-02-09T17:27:11.256Z,44.92
2023-02-09T17:30:16.940Z,51.90
2023-02-09T17:33:24.672Z,51.05
2023-02-09T17:36:31.008Z,54.75
2023-02-09T17:39:37.395Z,47.92
2023-02-09T17:42:41.572Z,57.05
2023-02-09T17:45:48.959Z,53.45
2023-02-09T17:48:52.402Z,55.88
2023-02-09T17:51:57.194Z,53.63
2023-02-09T17:55:00.620Z,53.13
2023-02-09T17:58:04.133Z,53.72
2023-02-09T18:01:22.406Z,52.90
2023-02-09T18:04:28.540Z,54.65
2023-02-09T18:07:33.352Z,52.85
2023-02-09T18:10:37.271Z,54.55
2023-02-09T18:13:40.600Z,53.88
2023-02-09T18:16:44.592Z,59.00
2023-02-09T18:19:47.796Z,63.95
2023-02-09T18:22:52.619Z,68.50
2023-02-09T18:25:55.808Z,63.70
2023-02-09T18:28:58.955Z,59.63
2023-02-09T18:32:04.316Z,51.10
2023-02-09T18:35:08.167Z,61.78
2023-02-09T18:38:15.346Z,76.95
2023-02-09T18:41:18.586Z,86.37
2023-02-09T18:44:23.626Z,74.97
2023-02-09T18:47:27.103Z,87.03
2023-02-09T18:50:32.602Z,78.30
2023-02-09T18:53:37.955Z,72.88
2023-02-09T18:56:41.116Z,78.18
2023-02-09T18:59:46.800Z,80.07
2023-02-09T19:02:53.183Z,70.63
2023-02-09T19:05:56.490Z,74.15
2023-02-09T19:09:01.454Z,72.18
2023-02-09T19:12:05.794Z,76.38
2023-02-09T19:15:09.681Z,80.55
2023-02-09T19:18:12.991Z,68.43
2023-02-09T19:21:16.102Z,69.95
2023-02-09T19:24:20.814Z,79.35
2023-02-09T19:27:26.744Z,71.45
2023-02-09T19:30:29.878Z,64.85
2023-02-09T19:33:33.031Z,72.15
2023-02-09T19:36:36.320Z,66.45
2023-02-09T19:39:41.560Z,70.35
2023-02-09T19:42:45.010Z,84.10
2023-02-09T19:45:56.547Z,81.72
2023-02-09T19:49:00.965Z,91.85
2023-02-09T19:52:04.596Z,83.55
2023-02-09T19:55:09.607Z,79.18
2023-02-09T19:58:12.799Z,74.95
2023-02-09T20:01:16.506Z,79.63
2023-02-09T20:04:19.699Z,75.97
2023-02-09T20:07:22.884Z,69.63
2023-02-09T20:10:27.519Z,74.35
2023-02-09T20:13:30.664Z,71.05
2023-02-09T20:16:33.898Z,72.13
2023-02-09T20:19:37.366Z,70.45
2023-02-09T20:22:40.571Z,78.35
2023-02-09T20:25:45.371Z,73.03
2023-02-09T20:28:48.818Z,77.90
2023-02-09T20:31:52.220Z,67.07
2023-02-09T20:34:55.765Z,69.07
2023-02-09T20:37:59.925Z,68.75
2023-02-09T20:41:08.138Z,61.90
2023-02-09T20:44:30.974Z,75.50
2023-02-09T20:47:34.106Z,77.50
2023-02-09T20:50:37.500Z,72.82
2023-02-09T20:53:40.696Z,76.20
2023-02-09T20:56:45.194Z,75.15
2023-02-09T20:59:48.457Z,77.40
2023-02-09T21:02:51.771Z,69.97
2023-02-09T21:05:54.953Z,61.00
2023-02-09T21:08:58.127Z,80.13
2023-02-09T21:12:05.320Z,83.38
2023-02-09T21:15:08.929Z,71.33
2023-02-09T21:18:12.310Z,80.13
2023-02-09T21:21:17.592Z,80.07
2023-02-09T21:24:21.380Z,79.93
2023-02-09T21:27:26.304Z,70.57
2023-02-09T21:30:30.106Z,84.55
2023-02-09T21:33:35.999Z,90.35
2023-02-09T21:36:39.201Z,87.65
2023-02-09T21:39:42.495Z,86.18
2023-02-09T21:42:49.480Z,88.80
2023-02-09T21:45:52.843Z,84.28
2023-02-09T21:48:56.541Z,69.18
2023-02-09T21:52:00.281Z,72.43
2023-02-09T21:55:04.059Z,73.85
2023-02-09T21:58:08.838Z,86.88
2023-02-09T22:01:12.429Z,79.10
2023-02-09T22:04:15.706Z,81.90
2023-02-09T22:07:19.063Z,85.53
2023-02-09T22:10:22.335Z,77.25
2023-02-09T22:13:27.005Z,89.28
2023-02-09T22:16:30.404Z,83.40
2023-02-09T22:19:33.491Z,95.45
2023-02-09T22:22:36.768Z,92.05
2023-02-09T22:25:39.959Z,87.97
2023-02-09T22:28:44.509Z,88.20
2023-02-09T22:34:23.612Z,90.35
2023-02-09T22:37:26.780Z,85.45
2023-02-09T22:40:29.855Z,89.68
2023-02-09T22:43:32.991Z,83.68
2023-02-09T22:46:37.781Z,89.70
2023-02-09T22:49:46.135Z,82.55
2023-02-09T22:52:49.353Z,84.72
2023-02-09T22:55:52.567Z,80.93
2023-02-09T22:58:56.621Z,82.55
2023-02-09T23:01:59.808Z,82.25
2023-02-09T23:05:04.884Z,80.57
2023-02-09T23:08:08.031Z,69.07
2023-02-09T23:11:13.766Z,78.95
2023-02-09T23:14:17.253Z,78.07
2023-02-09T23:17:20.457Z,72.10
2023-02-09T23:20:24.930Z,76.03
2023-02-09T23:23:28.089Z,85.72
2023-02-09T23:26:31.480Z,93.65
2023-02-09T23:29:34.691Z,84.22
2023-02-09T23:32:38.191Z,90.25
2023-02-09T23:35:42.919Z,90.55
2023-02-09T23:38:47.592Z,89.28
2023-02-09T23:41:50.979Z,82.68
2023-02-09T23:44:54.129Z,81.95
2023-02-09T23:47:57.332Z,93.82
2023-02-09T23:51:03.714Z,90.43
2023-02-09T23:54:08.316Z,101.30
2023-02-09T23:57:11.434Z,110.28
